Time;durP1;ratioP1;P1;durP2;ratioP2;P2;SDS_P1;SDS_P2;PMS_P1;PMS_P2;Temp;Humidity;BMP_temperature;BMP_pressure;BME280_temperature;BME280_humidity;BME280_pressure;Samples;Min_cycle;Max_cycle;Signal;HPM_P1;HPM_P2
2022/09/30 00:01:36;;;;;;;13.77;12.23;;;7.20;99.90;;;;;;6182097;23;20072;-72
2022/09/30 00:04:02;;;;;;;15.50;11.03;;;7.20;99.90;;;;;;6181710;23;20612;-72
2022/09/30 00:06:29;;;;;;;13.80;11.83;;;7.40;99.90;;;;;;6181998;23;19997;-73
2022/09/30 00:08:56;;;;;;;13.83;10.97;;;6.90;99.90;;;;;;6180957;23;20348;-72
2022/09/30 00:11:25;;;;;;;12.60;11.30;;;6.90;99.90;;;;;;6180387;23;20489;-72
2022/09/30 00:13:51;;;;;;;11.13;10.03;;;7.10;99.90;;;;;;6179929;23;20315;-73
2022/09/30 00:16:19;;;;;;;12.77;10.53;;;6.90;99.90;;;;;;6181951;23;20159;-72
2022/09/30 00:18:45;;;;;;;13.40;11.30;;;7.00;99.90;;;;;;6181444;23;20431;-72
2022/09/30 00:21:14;;;;;;;12.87;11.30;;;6.90;99.90;;;;;;6181842;23;20084;-71
2022/09/30 00:23:40;;;;;;;13.73;11.13;;;7.70;99.90;;;;;;6181169;23;20001;-72
2022/09/30 00:26:14;;;;;;;11.43;10.13;;;6.80;99.90;;;;;;6181545;23;20096;-71
2022/09/30 00:28:41;;;;;;;12.70;10.60;;;6.90;99.90;;;;;;6181677;23;20024;-72
2022/09/30 00:31:10;;;;;;;11.33;10.13;;;6.90;99.90;;;;;;6181333;23;20027;-72
2022/09/30 00:33:36;;;;;;;11.67;10.37;;;6.80;99.90;;;;;;6181755;23;20009;-72
2022/09/30 00:36:02;;;;;;;11.70;10.50;;;6.80;99.90;;;;;;6181453;23;20012;-72
2022/09/30 00:38:28;;;;;;;12.13;10.73;;;7.30;99.90;;;;;;6181248;23;19993;-72
2022/09/30 00:40:55;;;;;;;13.30;11.57;;;6.80;99.90;;;;;;6181487;23;20032;-72
2022/09/30 00:43:50;;;;;;;12.33;11.07;;;6.80;99.90;;;;;;6181634;23;20008;-72
2022/09/30 00:46:31;;;;;;;15.03;11.67;;;6.70;99.90;;;;;;6181810;23;20001;-72
2022/09/30 00:48:59;;;;;;;12.23;10.93;;;6.60;99.90;;;;;;6181352;23;20014;-72
2022/09/30 00:51:33;;;;;;;12.03;10.33;;;6.80;99.90;;;;;;6181120;23;20001;-72
2022/09/30 00:54:05;;;;;;;11.98;10.73;;;6.60;99.90;;;;;;6181531;23;20029;-72
2022/09/30 00:56:38;;;;;;;12.97;11.60;;;6.70;99.90;;;;;;6180262;23;20028;-72
2022/09/30 00:59:16;;;;;;;11.07;9.97;;;6.60;99.90;;;;;;6181495;23;20076;-72
2022/09/30 01:01:42;;;;;;;14.60;11.20;;;6.60;99.90;;;;;;6181045;23;19997;-72
2022/09/30 01:04:16;;;;;;;13.37;10.13;;;6.60;99.90;;;;;;6181559;23;20008;-73
2022/09/30 01:06:43;;;;;;;13.13;9.77;;;6.40;99.90;;;;;;6179075;23;20047;-72
2022/09/30 01:09:10;;;;;;;12.60;11.23;;;6.50;99.90;;;;;;6178814;23;20001;-73
2022/09/30 01:11:35;;;;;;;11.97;10.27;;;6.60;99.90;;;;;;6179003;23;20412;-72
2022/09/30 01:14:08;;;;;;;12.67;11.30;;;6.60;99.90;;;;;;6178356;23;20054;-72
2022/09/30 01:16:55;;;;;;;12.17;11.03;;;6.70;99.90;;;;;;6177614;23;20013;-72
2022/09/30 01:19:45;;;;;;;10.87;9.77;;;6.60;99.90;;;;;;6179420;23;20016;-72
2022/09/30 01:22:32;;;;;;;12.13;10.77;;;6.70;99.90;;;;;;6177093;23;20019;-72
2022/09/30 01:25:32;;;;;;;11.13;9.40;;;6.70;99.90;;;;;;6180496;23;20008;-73
2022/09/30 01:28:26;;;;;;;12.90;9.73;;;6.40;99.90;;;;;;6180968;23;20001;-72
2022/09/30 01:31:14;;;;;;;11.93;10.57;;;6.40;99.90;;;;;;6180826;23;20089;-73
2022/09/30 01:33:56;;;;;;;15.40;9.77;;;6.40;99.90;;;;;;6165304;23;20002;-72
2022/09/30 01:36:46;;;;;;;10.57;9.07;;;6.50;99.90;;;;;;6180729;23;20002;-72
2022/09/30 01:39:30;;;;;;;10.63;9.30;;;6.30;99.90;;;;;;6179558;23;20028;-72
2022/09/30 01:42:11;;;;;;;11.93;9.97;;;6.30;99.90;;;;;;6181097;23;20051;-73
2022/09/30 01:44:50;;;;;;;11.43;9.87;;;6.40;99.90;;;;;;6181059;23;20004;-72
2022/09/30 01:47:28;;;;;;;10.20;9.20;;;6.30;99.90;;;;;;6181469;23;20331;-73
2022/09/30 01:50:08;;;;;;;9.97;9.07;;;6.20;99.90;;;;;;6180505;23;20028;-73
2022/09/30 01:53:15;;;;;;;13.60;10.40;;;5.90;99.90;;;;;;6181770;23;20001;-74
2022/09/30 01:55:52;;;;;;;12.73;10.20;;;6.30;99.90;;;;;;6160076;23;19997;-74
2022/09/30 01:58:29;;;;;;;13.20;9.83;;;6.20;99.90;;;;;;6181410;23;20001;-74
2022/09/30 02:00:59;;;;;;;11.93;10.10;;;6.20;99.90;;;;;;6181028;23;20005;-71
2022/09/30 02:03:44;;;;;;;14.47;10.17;;;6.20;99.90;;;;;;6183052;23;20051;-71
2022/09/30 02:06:15;;;;;;;10.77;9.77;;;6.00;99.90;;;;;;6180829;23;20403;-75
2022/09/30 02:08:46;;;;;;;10.50;9.40;;;5.90;99.90;;;;;;6182917;23;20340;-74
2022/09/30 02:11:17;;;;;;;11.00;9.87;;;6.10;99.90;;;;;;6183355;23;20141;-72
2022/09/30 02:13:49;;;;;;;14.33;10.50;;;5.90;99.90;;;;;;6182568;23;20330;-72
2022/09/30 02:16:21;;;;;;;11.03;9.77;;;6.00;99.90;;;;;;6183145;23;20007;-73
2022/09/30 02:18:51;;;;;;;10.50;9.43;;;6.00;99.90;;;;;;6182022;23;20035;-73
2022/09/30 02:21:24;;;;;;;11.13;9.93;;;6.00;99.90;;;;;;6183012;23;20020;-72
2022/09/30 02:23:58;;;;;;;10.15;9.10;;;5.90;99.90;;;;;;6182576;23;20008;-72
2022/09/30 02:26:27;;;;;;;11.13;9.00;;;6.00;99.90;;;;;;6182989;23;20032;-72
2022/09/30 02:29:03;;;;;;;10.70;8.90;;;5.90;99.90;;;;;;6182188;23;20012;-72
2022/09/30 02:31:33;;;;;;;11.37;9.87;;;6.00;99.90;;;;;;6182732;23;20005;-72
2022/09/30 02:34:09;;;;;;;9.87;8.87;;;5.70;99.90;;;;;;6181939;23;20315;-72
2022/09/30 02:36:43;;;;;;;10.97;9.33;;;5.90;99.90;;;;;;6182277;23;20024;-72
2022/09/30 02:39:31;;;;;;;11.50;9.50;;;5.90;99.90;;;;;;6182711;23;20115;-72
2022/09/30 02:42:07;;;;;;;10.93;8.70;;;6.00;99.90;;;;;;6182149;23;20063;-72
2022/09/30 02:44:33;;;;;;;9.90;8.90;;;6.00;99.90;;;;;;6181960;23;20001;-72
2022/09/30 02:47:14;;;;;;;14.60;9.13;;;5.90;99.90;;;;;;6182127;23;20032;-72
2022/09/30 02:49:50;;;;;;;9.33;8.17;;;5.90;99.90;;;;;;6181386;23;20008;-72
2022/09/30 02:52:39;;;;;;;8.93;8.00;;;5.90;99.90;;;;;;6182491;23;20419;-72
2022/09/30 02:55:27;;;;;;;11.77;8.40;;;6.10;99.90;;;;;;6182347;23;20001;-72
2022/09/30 02:58:14;;;;;;;10.53;8.63;;;5.90;99.90;;;;;;6182181;23;20091;-73
2022/09/30 03:00:40;;;;;;;10.30;9.27;;;5.80;99.90;;;;;;6182291;23;20001;-73
2022/09/30 03:03:16;;;;;;;9.70;8.70;;;6.00;99.90;;;;;;6181993;23;20001;-72
2022/09/30 03:05:42;;;;;;;9.87;8.47;;;5.90;99.90;;;;;;6181324;23;20009;-72
2022/09/30 03:08:09;;;;;;;9.83;8.83;;;6.20;99.90;;;;;;6181833;23;20001;-72
2022/09/30 03:10:34;;;;;;;9.70;8.70;;;5.80;99.90;;;;;;6180453;23;20059;-72
2022/09/30 03:13:24;;;;;;;11.73;9.67;;;6.00;99.90;;;;;;6179349;23;20001;-72
2022/09/30 03:16:06;;;;;;;11.23;9.53;;;5.90;99.90;;;;;;6181234;23;19997;-72
2022/09/30 03:18:50;;;;;;;10.17;8.87;;;5.90;99.90;;;;;;6181213;23;20001;-72
2022/09/30 03:21:40;;;;;;;14.50;11.63;;;5.80;99.90;;;;;;6180100;23;20009;-73
2022/09/30 03:24:21;;;;;;;13.27;10.23;;;5.70;99.90;;;;;;6181893;23;20012;-72
2022/09/30 03:27:20;;;;;;;18.67;11.23;;;5.70;99.90;;;;;;6181589;23;20036;-72
2022/09/30 03:30:04;;;;;;;20.63;12.87;;;5.80;99.90;;;;;;6181358;23;20017;-72
2022/09/30 03:32:49;;;;;;;;;;;5.80;99.90;;;;;;6182244;23;20020;-72
2022/09/30 03:35:48;;;;;;;18.98;12.65;;;5.80;99.90;;;;;;6182336;23;19905;-72
2022/09/30 03:38:16;;;;;;;17.20;12.70;;;5.70;99.90;;;;;;6182047;23;20093;-72
2022/09/30 03:40:54;;;;;;;17.77;12.57;;;5.90;99.90;;;;;;6181557;23;20042;-73
2022/09/30 03:43:43;;;;;;;17.23;12.70;;;6.00;99.90;;;;;;6182231;23;20001;-73
2022/09/30 03:46:21;;;;;;;16.37;11.87;;;5.70;99.90;;;;;;6181636;23;20060;-73
2022/09/30 03:48:50;;;;;;;19.60;12.40;;;5.80;99.90;;;;;;6181605;23;20056;-72
2022/09/30 03:51:16;;;;;;;17.23;12.40;;;5.80;99.90;;;;;;6181722;23;20013;-72
2022/09/30 03:53:45;;;;;;;17.33;12.30;;;5.80;99.90;;;;;;6181651;23;20054;-72
2022/09/30 03:56:11;;;;;;;18.90;12.33;;;5.90;99.90;;;;;;6182245;23;20002;-72
2022/09/30 03:58:40;;;;;;;14.90;11.50;;;5.80;99.90;;;;;;6181582;23;20474;-73
2022/09/30 04:01:06;;;;;;;14.60;12.00;;;5.80;99.90;;;;;;6181391;23;20009;-73
2022/09/30 04:03:32;;;;;;;15.90;11.23;;;5.90;99.90;;;;;;6180208;23;20020;-73
2022/09/30 04:05:57;;;;;;;14.13;10.57;;;5.70;99.90;;;;;;6181704;23;20040;-73
2022/09/30 04:08:23;;;;;;;15.67;11.47;;;5.80;99.90;;;;;;6181795;23;20001;-73
2022/09/30 04:10:48;;;;;;;13.50;9.57;;;6.10;99.90;;;;;;6181512;23;20134;-73
2022/09/30 04:13:14;;;;;;;12.73;11.33;;;5.70;99.90;;;;;;6181997;23;20008;-74
2022/09/30 04:15:40;;;;;;;13.33;10.63;;;5.60;99.90;;;;;;6181171;23;20441;-73
2022/09/30 04:18:06;;;;;;;13.83;10.80;;;5.60;99.90;;;;;;6181810;23;20300;-73
2022/09/30 04:20:32;;;;;;;16.10;10.33;;;5.70;99.90;;;;;;6181753;23;20055;-73
2022/09/30 04:22:58;;;;;;;13.70;10.77;;;5.70;99.90;;;;;;6181667;23;20023;-73
2022/09/30 04:25:25;;;;;;;13.30;11.20;;;5.60;99.90;;;;;;6181642;23;20009;-73
2022/09/30 04:27:50;;;;;;;15.50;10.97;;;5.50;99.90;;;;;;6181450;23;19997;-73
2022/09/30 04:30:16;;;;;;;16.33;10.47;;;5.70;99.90;;;;;;6181068;23;20323;-72
2022/09/30 04:32:44;;;;;;;11.77;10.03;;;5.50;99.90;;;;;;6181272;23;20312;-72
2022/09/30 04:35:13;;;;;;;13.07;9.40;;;5.40;99.90;;;;;;6181748;23;20001;-73
2022/09/30 04:37:43;;;;;;;13.50;10.53;;;5.50;99.90;;;;;;6181334;23;20088;-73
2022/09/30 04:40:09;;;;;;;12.37;10.70;;;5.50;99.90;;;;;;6180207;23;20379;-73
2022/09/30 04:42:35;;;;;;;12.97;10.70;;;5.50;99.90;;;;;;6181823;23;20009;-73
2022/09/30 04:45:02;;;;;;;17.20;11.23;;;5.60;99.90;;;;;;6180594;23;20012;-73
2022/09/30 04:47:28;;;;;;;11.93;10.60;;;5.60;99.90;;;;;;6181754;23;19997;-73
2022/09/30 04:49:55;;;;;;;13.40;10.90;;;5.50;99.90;;;;;;6181279;23;20009;-73
2022/09/30 04:52:20;;;;;;;12.67;10.90;;;5.60;99.90;;;;;;6179984;23;20354;-73
2022/09/30 04:54:46;;;;;;;15.13;10.57;;;5.50;99.90;;;;;;6181279;23;20084;-73
2022/09/30 04:57:12;;;;;;;12.03;10.10;;;5.50;99.90;;;;;;6181536;23;20004;-72
2022/09/30 04:59:38;;;;;;;11.67;9.70;;;5.50;99.90;;;;;;6180892;23;20001;-73
2022/09/30 05:02:04;;;;;;;17.43;10.33;;;5.60;99.90;;;;;;6181324;23;20004;-73
2022/09/30 05:04:32;;;;;;;12.33;10.13;;;5.60;99.90;;;;;;6181593;23;20005;-73
2022/09/30 05:06:59;;;;;;;14.83;10.60;;;5.60;99.90;;;;;;6181163;23;20097;-72
2022/09/30 05:09:24;;;;;;;17.53;12.00;;;5.60;99.90;;;;;;6181348;23;20059;-73
2022/09/30 05:11:50;;;;;;;20.30;12.37;;;5.50;99.90;;;;;;6181340;23;20005;-73
2022/09/30 05:14:16;;;;;;;20.23;13.03;;;5.40;99.90;;;;;;6180984;23;20001;-72
2022/09/30 05:16:42;;;;;;;15.87;11.37;;;5.50;99.90;;;;;;6181100;23;20296;-73
2022/09/30 05:19:07;;;;;;;15.97;11.70;;;5.30;99.90;;;;;;6181282;23;20076;-73
2022/09/30 05:21:34;;;;;;;18.90;13.43;;;5.40;99.90;;;;;;6181628;23;20005;-73
2022/09/30 05:24:00;;;;;;;18.10;11.50;;;5.30;99.90;;;;;;6181032;23;20076;-73
2022/09/30 05:26:26;;;;;;;18.73;12.13;;;5.80;99.90;;;;;;6181458;23;20011;-73
2022/09/30 05:28:52;;;;;;;15.10;12.10;;;5.20;99.90;;;;;;6180662;23;20032;-73
2022/09/30 05:31:19;;;;;;;13.43;11.70;;;5.30;99.90;;;;;;6181049;23;20036;-73
2022/09/30 05:33:45;;;;;;;18.73;12.97;;;5.40;99.90;;;;;;6180996;23;20058;-73
2022/09/30 05:36:13;;;;;;;13.40;11.13;;;5.30;99.90;;;;;;6182376;23;20004;-73
2022/09/30 05:38:39;;;;;;;16.73;11.83;;;5.30;99.90;;;;;;6183187;23;20438;-73
2022/09/30 05:41:10;;;;;;;15.97;11.90;;;5.30;99.90;;;;;;6183409;23;20005;-73
2022/09/30 05:43:41;;;;;;;14.43;11.37;;;5.40;99.90;;;;;;6182995;23;20336;-74
2022/09/30 05:46:07;;;;;;;17.37;12.73;;;5.30;99.90;;;;;;6182392;23;20415;-74
2022/09/30 05:48:33;;;;;;;15.47;10.77;;;5.70;99.90;;;;;;6183487;23;20012;-73
2022/09/30 05:51:00;;;;;;;15.80;12.30;;;5.40;99.90;;;;;;6181385;23;20013;-73
2022/09/30 05:53:26;;;;;;;15.33;12.07;;;5.00;99.90;;;;;;6183387;23;20075;-74
2022/09/30 05:55:52;;;;;;;18.33;12.17;;;5.40;99.90;;;;;;6182509;23;19997;-73
2022/09/30 05:58:19;;;;;;;15.53;12.20;;;5.30;99.90;;;;;;6183343;23;20001;-74
2022/09/30 06:00:47;;;;;;;15.80;12.37;;;5.30;99.90;;;;;;6183047;23;20013;-73
2022/09/30 06:03:13;;;;;;;14.77;10.60;;;5.30;99.90;;;;;;6183297;23;20063;-74
2022/09/30 06:05:38;;;;;;;17.60;11.93;;;5.30;99.90;;;;;;6182966;23;20020;-73
2022/09/30 06:08:06;;;;;;;16.53;11.27;;;5.40;99.90;;;;;;6182900;23;20531;-72
2022/09/30 06:10:33;;;;;;;15.60;11.40;;;5.40;99.90;;;;;;6182680;23;20044;-73
2022/09/30 06:13:00;;;;;;;15.83;11.17;;;5.40;99.90;;;;;;6182920;23;20001;-73
2022/09/30 06:15:25;;;;;;;15.93;11.83;;;5.40;99.90;;;;;;6183056;23;20017;-73
2022/09/30 06:17:55;;;;;;;17.30;11.93;;;5.50;99.90;;;;;;6182850;23;20001;-72
2022/09/30 06:20:21;;;;;;;16.77;11.33;;;5.30;99.90;;;;;;6183075;23;20575;-72
2022/09/30 06:22:46;;;;;;;19.57;12.80;;;5.50;99.90;;;;;;6182665;23;20383;-72
2022/09/30 06:25:13;;;;;;;17.70;12.60;;;5.50;99.90;;;;;;6182651;23;20032;-72
2022/09/30 06:27:39;;;;;;;16.03;12.00;;;5.50;99.90;;;;;;6182732;23;20010;-72
2022/09/30 06:30:06;;;;;;;14.53;12.37;;;5.40;99.90;;;;;;6182542;23;20041;-72
2022/09/30 06:32:31;;;;;;;16.13;11.60;;;5.40;99.90;;;;;;6182934;23;20068;-72
2022/09/30 06:34:57;;;;;;;16.70;12.83;;;5.50;99.90;;;;;;6182361;23;20083;-73
2022/09/30 06:37:23;;;;;;;15.13;13.10;;;5.60;99.90;;;;;;6182835;23;19997;-74
2022/09/30 06:39:49;;;;;;;16.97;13.77;;;5.80;99.90;;;;;;6181797;23;20005;-74
2022/09/30 06:42:16;;;;;;;20.47;13.17;;;5.70;99.90;;;;;;6182989;23;20303;-74
2022/09/30 06:44:43;;;;;;;18.03;13.40;;;5.90;99.90;;;;;;6182218;23;19997;-74
2022/09/30 06:47:09;;;;;;;20.73;14.13;;;5.70;99.90;;;;;;6182324;23;19997;-74
2022/09/30 06:49:35;;;;;;;21.57;15.80;;;6.00;99.90;;;;;;6182681;23;20299;-74
2022/09/30 06:52:00;;;;;;;20.43;15.97;;;5.80;99.90;;;;;;6181157;23;20055;-74
2022/09/30 06:54:29;;;;;;;25.57;17.33;;;6.00;99.90;;;;;;6182154;23;19997;-74
2022/09/30 06:56:56;;;;;;;26.40;18.67;;;6.20;99.90;;;;;;6180735;23;20028;-75
2022/09/30 06:59:22;;;;;;;25.37;19.87;;;6.10;99.90;;;;;;6182860;23;20034;-74
2022/09/30 07:01:48;;;;;;;35.37;23.30;;;6.10;99.90;;;;;;6182181;23;20398;-74
2022/09/30 07:04:14;;;;;;;39.83;27.43;;;6.30;99.90;;;;;;6182514;23;20040;-74
2022/09/30 07:06:40;;;;;;;42.70;26.60;;;6.20;99.90;;;;;;6182271;23;20023;-73
2022/09/30 07:09:06;;;;;;;38.93;27.97;;;6.50;99.90;;;;;;6181364;23;20004;-74
2022/09/30 07:11:32;;;;;;;40.50;29.57;;;6.40;99.90;;;;;;6181950;23;20005;-73
2022/09/30 07:13:59;;;;;;;45.73;31.17;;;6.40;99.90;;;;;;6181293;23;19998;-73
2022/09/30 07:16:24;;;;;;;47.53;33.23;;;6.50;99.90;;;;;;6182276;23;20001;-74
2022/09/30 07:18:50;;;;;;;55.93;35.80;;;6.50;99.90;;;;;;6179901;23;20430;-75
2022/09/30 07:21:16;;;;;;;52.90;36.43;;;6.80;99.90;;;;;;6181463;23;20524;-74
2022/09/30 07:23:46;;;;;;;49.10;35.37;;;6.80;99.90;;;;;;6180786;23;20400;-74
2022/09/30 07:26:17;;;;;;;52.43;35.90;;;6.80;99.90;;;;;;6182144;23;20005;-74
2022/09/30 07:28:42;;;;;;;54.50;36.80;;;7.30;99.90;;;;;;6181166;23;20079;-74
2022/09/30 07:31:20;;;;;;;53.50;38.17;;;7.00;99.90;;;;;;6180621;23;20045;-74
2022/09/30 07:33:46;;;;;;;56.53;38.80;;;7.10;99.90;;;;;;6180479;23;20001;-73
2022/09/30 07:36:14;;;;;;;54.73;38.73;;;7.10;99.90;;;;;;6181443;23;20007;-73
2022/09/30 07:38:41;;;;;;;60.10;41.00;;;7.20;99.90;;;;;;6180922;23;20658;-73
2022/09/30 07:41:11;;;;;;;63.10;42.50;;;8.60;99.90;;;;;;6181563;23;20059;-73
2022/09/30 07:43:38;;;;;;;59.80;41.23;;;7.50;99.90;;;;;;6181371;23;20016;-73
2022/09/30 07:46:23;;;;;;;60.73;42.87;;;7.50;99.90;;;;;;6181302;23;20083;-73
2022/09/30 07:48:50;;;;;;;62.80;44.78;;;7.50;99.90;;;;;;6179224;23;20009;-73
2022/09/30 07:51:37;;;;;;;72.53;46.67;;;7.80;99.90;;;;;;6181359;23;20016;-73
2022/09/30 07:54:11;;;;;;;69.73;49.33;;;7.70;99.90;;;;;;6180354;23;20001;-73
2022/09/30 07:56:38;;;;;;;79.97;52.50;;;7.90;99.90;;;;;;6180850;23;20490;-73
2022/09/30 07:59:05;;;;;;;73.73;53.07;;;8.00;99.90;;;;;;6181255;23;20024;-74
2022/09/30 08:01:31;;;;;;;73.50;50.83;;;8.10;99.90;;;;;;6181116;23;20005;-74
2022/09/30 08:04:01;;;;;;;70.23;50.57;;;8.20;99.90;;;;;;6180552;23;20040;-73
2022/09/30 08:06:29;;;;;;;71.27;52.27;;;8.30;99.90;;;;;;6180808;23;20439;-73
2022/09/30 08:08:56;;;;;;;74.23;53.90;;;8.40;99.90;;;;;;6180626;23;20011;-73
2022/09/30 08:11:21;;;;;;;66.30;49.40;;;8.50;99.90;;;;;;6181218;23;20013;-73
2022/09/30 08:13:55;;;;;;;70.30;51.53;;;8.50;99.90;;;;;;6180492;23;20009;-72
2022/09/30 08:16:23;;;;;;;66.22;50.75;;;8.70;99.90;;;;;;6179459;23;20339;-73
2022/09/30 08:18:48;;;;;;;63.80;49.37;;;8.80;99.90;;;;;;6179853;23;20001;-72
2022/09/30 08:21:14;;;;;;;64.43;49.87;;;8.80;99.90;;;;;;6180477;23;20015;-73
2022/09/30 08:23:40;;;;;;;61.03;48.87;;;8.90;99.90;;;;;;6180901;23;20445;-73
2022/09/30 08:26:11;;;;;;;62.87;49.03;;;9.00;99.90;;;;;;6181178;23;20080;-73
2022/09/30 08:28:37;;;;;;;65.27;48.73;;;9.00;99.90;;;;;;6181337;23;20158;-73
2022/09/30 08:31:15;;;;;;;54.93;45.30;;;9.10;99.90;;;;;;6180565;23;20094;-73
2022/09/30 08:33:41;;;;;;;58.10;47.70;;;9.30;99.90;;;;;;6180712;23;20335;-75
2022/09/30 08:36:10;;;;;;;59.07;47.37;;;9.30;99.90;;;;;;6180935;23;20347;-74
2022/09/30 08:38:36;;;;;;;55.20;46.60;;;9.40;99.90;;;;;;6182069;23;20001;-73
2022/09/30 08:41:26;;;;;;;62.93;50.17;;;9.50;99.90;;;;;;6181538;23;20012;-73
2022/09/30 08:44:33;;;;;;;58.17;48.10;;;9.60;99.90;;;;;;6181518;23;20077;-72
2022/09/30 08:47:30;;;;;;;50.83;43.83;;;9.70;99.90;;;;;;6179036;23;20084;-73
2022/09/30 08:50:26;;;;;;;55.13;42.47;;;9.80;99.90;;;;;;6129779;23;20020;-73
2022/09/30 08:53:00;;;;;;;52.40;44.73;;;9.80;99.90;;;;;;6181027;23;20025;-73
2022/09/30 08:55:38;;;;;;;48.70;41.95;;;9.90;99.90;;;;;;6181771;23;20052;-73
2022/09/30 08:58:13;;;;;;;50.70;42.13;;;10.00;99.90;;;;;;6181317;23;20008;-72
2022/09/30 09:00:41;;;;;;;48.27;40.87;;;10.20;99.90;;;;;;6181608;23;20035;-70
2022/09/30 09:03:12;;;;;;;48.37;40.77;;;10.20;99.90;;;;;;6179630;23;20009;-70
2022/09/30 09:06:00;;;;;;;49.10;40.40;;;10.30;99.90;;;;;;6180967;23;20328;-70
2022/09/30 09:08:25;;;;;;;44.70;37.70;;;10.40;99.90;;;;;;6181741;23;20001;-71
2022/09/30 09:11:02;;;;;;;53.10;42.30;;;10.50;99.90;;;;;;6180935;23;20086;-71
2022/09/30 09:13:46;;;;;;;49.73;41.07;;;10.60;99.90;;;;;;6181714;23;19997;-71
2022/09/30 09:16:18;;;;;;;;;;;10.70;99.90;;;;;;6182048;23;20024;-72
2022/09/30 09:18:50;;;;;;;43.97;39.23;;;10.70;99.90;;;;;;6179288;23;19916;-71
2022/09/30 09:21:28;;;;;;;45.30;39.55;;;10.90;99.90;;;;;;6181748;23;20017;-71
2022/09/30 09:23:59;;;;;;;42.23;37.60;;;11.00;99.90;;;;;;6181009;23;20105;-71
2022/09/30 09:26:27;;;;;;;43.83;39.07;;;11.10;99.90;;;;;;6181603;23;20016;-72
2022/09/30 09:29:08;;;;;;;43.13;38.83;;;11.20;99.90;;;;;;6180569;23;20080;-72
2022/09/30 09:31:34;;;;;;;37.67;33.60;;;11.30;99.90;;;;;;6180792;23;20009;-71
2022/09/30 09:34:08;;;;;;;42.70;38.33;;;11.50;99.90;;;;;;6180005;23;20005;-72
2022/09/30 09:36:48;;;;;;;;;;;11.50;99.90;;;;;;6180590;23;20009;-72
2022/09/30 09:39:23;;;;;;;37.83;33.88;;;11.70;99.90;;;;;;6181387;23;19900;-72
2022/09/30 09:41:54;;;;;;;40.47;36.13;;;11.70;99.90;;;;;;6180885;23;20033;-72
2022/09/30 09:44:43;;;;;;;40.33;35.93;;;11.80;99.90;;;;;;6181056;23;19993;-72
2022/09/30 09:47:14;;;;;;;39.28;35.03;;;12.00;99.90;;;;;;6181111;23;20008;-72
2022/09/30 09:50:00;;;;;;;36.70;33.00;;;12.10;99.90;;;;;;6180405;23;20005;-72
2022/09/30 09:52:43;;;;;;;38.08;34.20;;;12.20;99.90;;;;;;6181332;23;19997;-72
2022/09/30 09:55:10;;;;;;;36.85;33.15;;;12.30;99.90;;;;;;6181287;23;20008;-72
2022/09/30 09:57:36;;;;;;;35.13;31.45;;;12.40;99.90;;;;;;6181313;23;20064;-71
2022/09/30 10:03:11;;;;;;;35.00;31.73;;;12.70;99.90;;;;;;6179510;23;20012;-71
2022/09/30 10:05:41;;;;;;;32.45;29.35;;;12.70;99.90;;;;;;6179219;23;20092;-71
2022/09/30 10:08:20;;;;;;;34.83;31.27;;;12.80;99.90;;;;;;6180865;23;20064;-71
2022/09/30 10:10:52;;;;;;;33.63;30.10;;;12.80;99.90;;;;;;6180752;23;20048;-71
2022/09/30 10:13:45;;;;;;;32.72;29.45;;;12.80;99.90;;;;;;6181027;23;20005;-72
2022/09/30 10:16:34;;;;;;;34.20;29.40;;;12.90;99.90;;;;;;6179321;23;20001;-72
2022/09/30 10:19:00;;;;;;;29.58;26.73;;;12.90;99.90;;;;;;6179920;23;20704;-74
2022/09/30 10:21:28;;;;;;;28.48;25.67;;;13.00;99.90;;;;;;6181337;23;20009;-72
2022/09/30 10:23:56;;;;;;;28.88;26.20;;;14.00;99.90;;;;;;6182170;23;20001;-71
2022/09/30 10:26:27;;;;;;;25.90;23.45;;;12.90;99.90;;;;;;6182717;23;20506;-72
2022/09/30 10:29:01;;;;;;;27.33;24.67;;;13.10;99.90;;;;;;6182401;23;20016;-72
2022/09/30 10:31:43;;;;;;;24.35;22.00;;;13.20;99.90;;;;;;6181140;23;20067;-72
2022/09/30 10:34:14;;;;;;;24.17;21.95;;;13.30;99.90;;;;;;6182535;23;20339;-72
2022/09/30 10:36:44;;;;;;;25.10;22.50;;;13.30;99.90;;;;;;6182588;23;20005;-72
2022/09/30 10:39:25;;;;;;;22.65;20.45;;;13.40;99.90;;;;;;6182663;23;20001;-71
2022/09/30 10:42:06;;;;;;;22.25;20.27;;;13.40;99.90;;;;;;6182313;23;20037;-72
2022/09/30 10:44:35;;;;;;;20.75;18.92;;;13.50;99.90;;;;;;6182626;23;20051;-71
2022/09/30 10:47:02;;;;;;;20.65;18.65;;;13.50;99.90;;;;;;6181769;23;20415;-72
2022/09/30 10:49:30;;;;;;;21.75;19.58;;;13.70;99.90;;;;;;6182472;23;20029;-72
2022/09/30 10:51:58;;;;;;;19.58;17.60;;;13.50;99.90;;;;;;6182112;23;20072;-73
2022/09/30 10:54:38;;;;;;;19.92;17.95;;;15.30;99.90;;;;;;6182999;23;20001;-72
2022/09/30 10:57:12;;;;;;;19.85;17.88;;;13.60;99.90;;;;;;6182455;23;20481;-73
2022/09/30 10:59:39;;;;;;;;;;;14.40;99.90;;;;;;6183056;23;20481;-71
2022/09/30 11:02:32;;;;;;;17.55;15.75;;;13.70;99.90;;;;;;6181865;23;19980;-71
2022/09/30 11:05:21;;;;;;;17.55;15.95;;;13.60;99.90;;;;;;6181450;23;20032;-71
2022/09/30 11:07:54;;;;;;;17.45;15.93;;;13.80;99.90;;;;;;6180747;23;20059;-72
2022/09/30 11:10:38;;;;;;;17.48;15.88;;;13.80;99.90;;;;;;6181647;23;20016;-72
2022/09/30 11:13:12;;;;;;;15.85;14.43;;;13.90;99.90;;;;;;6181720;23;20012;-71
2022/09/30 11:15:48;;;;;;;16.45;15.00;;;13.80;99.90;;;;;;6179831;23;20013;-71
2022/09/30 11:18:24;;;;;;;15.52;14.13;;;13.80;99.90;;;;;;6181939;23;20327;-71
2022/09/30 11:20:56;;;;;;;16.55;15.15;;;13.90;99.90;;;;;;6181112;23;20012;-71
2022/09/30 11:23:39;;;;;;;19.60;16.88;;;14.00;99.90;;;;;;6181811;23;20005;-71
2022/09/30 11:26:13;;;;;;;18.83;16.92;;;14.10;99.90;;;;;;6181701;23;20439;-71
2022/09/30 11:28:42;;;;;;;17.88;16.17;;;14.20;99.90;;;;;;6181642;23;20009;-72
2022/09/30 11:31:16;;;;;;;20.67;17.90;;;14.20;99.90;;;;;;6181392;23;20020;-72
2022/09/30 11:33:47;;;;;;;19.08;17.38;;;14.30;99.90;;;;;;6182184;23;19997;-71
2022/09/30 11:36:40;;;;;;;18.08;16.20;;;14.50;99.90;;;;;;6182427;23;20005;-71
2022/09/30 11:39:33;;;;;;;18.38;16.55;;;14.50;99.90;;;;;;6182067;23;20012;-71
2022/09/30 11:42:20;;;;;;;19.45;17.55;;;14.40;99.90;;;;;;6182113;23;20008;-71
2022/09/30 11:44:50;;;;;;;18.65;16.05;;;14.50;99.90;;;;;;6179777;23;20448;-71
2022/09/30 11:47:27;;;;;;;18.63;16.73;;;14.50;99.90;;;;;;6180695;23;20009;-72
2022/09/30 11:50:17;;;;;;;16.40;14.80;;;14.50;99.90;;;;;;6181294;23;20075;-72
2022/09/30 11:52:55;;;;;;;17.10;14.82;;;14.50;99.90;;;;;;6181747;23;20020;-73
2022/09/30 11:56:07;;;;;;;15.38;13.85;;;14.50;99.90;;;;;;6182188;23;20059;-72
2022/09/30 11:58:42;;;;;;;13.70;12.20;;;14.60;99.90;;;;;;6115808;23;20420;-72
2022/09/30 12:01:13;;;;;;;15.45;13.85;;;14.60;99.90;;;;;;6182110;23;20009;-72
2022/09/30 12:03:45;;;;;;;17.40;12.52;;;14.70;99.90;;;;;;6181545;23;20054;-72
2022/09/30 12:06:24;;;;;;;13.77;12.38;;;14.80;99.90;;;;;;6181649;23;20005;-72
2022/09/30 12:08:58;;;;;;;13.82;12.38;;;14.90;99.90;;;;;;6181532;23;19997;-73
2022/09/30 12:11:53;;;;;;;10.65;9.55;;;15.00;99.90;;;;;;6181502;23;20012;-72
2022/09/30 12:14:22;;;;;;;;;;;15.10;99.90;;;;;;6165988;23;20040;-72
2022/09/30 12:16:49;;;;;;;8.98;8.07;;;15.10;99.90;;;;;;6181194;23;19983;-72
2022/09/30 12:19:25;;;;;;;9.02;8.13;;;15.10;99.90;;;;;;6181721;23;19998;-72
2022/09/30 12:22:00;;;;;;;8.52;7.63;;;15.10;99.90;;;;;;6181228;23;20005;-72
2022/09/30 12:24:36;;;;;;;9.25;6.93;;;15.30;99.90;;;;;;6181811;23;20028;-72
2022/09/30 12:27:03;;;;;;;9.07;7.05;;;15.40;99.90;;;;;;6179866;23;20015;-72
2022/09/30 12:32:39;;;;;;;5.15;4.75;;;15.40;99.90;;;;;;6181654;23;20012;-72
2022/09/30 12:35:28;;;;;;;7.68;6.72;;;15.40;99.90;;;;;;6180687;23;20001;-72
2022/09/30 12:38:08;;;;;;;6.93;4.75;;;15.30;99.90;;;;;;6122270;23;20088;-71
2022/09/30 12:40:54;;;;;;;6.43;5.80;;;15.20;99.90;;;;;;6181320;23;20011;-71
2022/09/30 12:43:29;;;;;;;7.93;5.47;;;15.40;99.90;;;;;;6180623;23;20013;-71
2022/09/30 12:46:17;;;;;;;4.85;4.40;;;15.50;99.90;;;;;;6179815;23;20005;-72
2022/09/30 12:48:52;;;;;;;4.70;4.18;;;15.70;99.90;;;;;;6181953;23;20012;-70
2022/09/30 12:51:26;;;;;;;6.63;3.08;;;15.50;99.90;;;;;;6181443;23;20012;-72
2022/09/30 12:54:01;;;;;;;3.92;2.80;;;15.70;99.90;;;;;;6180727;23;20100;-72
2022/09/30 12:56:29;;;;;;;3.60;2.85;;;15.70;99.90;;;;;;6179646;23;20001;-71
2022/09/30 12:58:56;;;;;;;3.17;2.70;;;16.80;99.90;;;;;;6179844;23;20013;-73
2022/09/30 13:01:36;;;;;;;5.28;2.28;;;15.80;99.90;;;;;;6179670;23;20011;-73
2022/09/30 13:04:02;;;;;;;2.92;2.65;;;15.80;99.90;;;;;;6179247;23;20000;-72
2022/09/30 13:06:48;;;;;;;4.32;3.92;;;15.80;99.90;;;;;;6178670;23;20079;-71
2022/09/30 13:09:16;;;;;;;5.43;4.35;;;16.00;99.90;;;;;;6120307;23;20005;-71
2022/09/30 13:12:11;;;;;;;3.42;2.80;;;16.00;99.90;;;;;;6180227;23;20001;-72
2022/09/30 13:14:44;;;;;;;3.83;3.05;;;16.00;99.90;;;;;;6179089;23;20001;-73